sensor_id;sensor_type;location;lat;lon;timestamp;P1;durP1;ratioP1;P2;durP2;ratioP2
26806;SDS011;14380;49.910;6.792;2023-05-10T00:02:17;6.25;;;2.75;;
26806;SDS011;14380;49.910;6.792;2023-05-10T00:04:43;7.47;;;2.58;;
26806;SDS011;14380;49.910;6.792;2023-05-10T00:07:10;5.78;;;3.60;;
26806;SDS011;14380;49.910;6.792;2023-05-10T00:09:38;5.10;;;2.97;;
26806;SDS011;14380;49.910;6.792;2023-05-10T00:12:05;6.03;;;2.90;;
26806;SDS011;14380;49.910;6.792;2023-05-10T00:14:32;3.08;;;2.78;;
26806;SDS011;14380;49.910;6.792;2023-05-10T00:16:59;5.18;;;3.00;;
26806;SDS011;14380;49.910;6.792;2023-05-10T00:19:26;3.88;;;3.40;;
26806;SDS011;14380;49.910;6.792;2023-05-10T00:21:53;4.30;;;3.60;;
26806;SDS011;14380;49.910;6.792;2023-05-10T00:24:20;3.70;;;3.20;;
26806;SDS011;14380;49.910;6.792;2023-05-10T00:26:48;3.50;;;2.90;;
26806;SDS011;14380;49.910;6.792;2023-05-10T00:29:15;4.38;;;2.90;;
26806;SDS011;14380;49.910;6.792;2023-05-10T00:31:42;5.07;;;2.58;;
26806;SDS011;14380;49.910;6.792;2023-05-10T00:34:08;6.47;;;3.20;;
26806;SDS011;14380;49.910;6.792;2023-05-10T00:36:36;5.97;;;2.70;;
26806;SDS011;14380;49.910;6.792;2023-05-10T00:39:02;4.05;;;3.08;;
26806;SDS011;14380;49.910;6.792;2023-05-10T00:41:29;5.72;;;2.83;;
26806;SDS011;14380;49.910;6.792;2023-05-10T00:43:59;6.25;;;2.78;;
26806;SDS011;14380;49.910;6.792;2023-05-10T00:46:27;4.30;;;2.88;;
26806;SDS011;14380;49.910;6.792;2023-05-10T00:48:54;10.10;;;3.03;;
26806;SDS011;14380;49.910;6.792;2023-05-10T00:51:21;7.20;;;2.95;;
26806;SDS011;14380;49.910;6.792;2023-05-10T00:53:47;6.72;;;2.90;;
26806;SDS011;14380;49.910;6.792;2023-05-10T00:56:15;3.67;;;2.55;;
26806;SDS011;14380;49.910;6.792;2023-05-10T00:58:42;5.97;;;2.72;;
26806;SDS011;14380;49.910;6.792;2023-05-10T01:01:11;7.03;;;2.35;;
26806;SDS011;14380;49.910;6.792;2023-05-10T01:03:38;4.10;;;2.58;;
26806;SDS011;14380;49.910;6.792;2023-05-10T01:06:06;4.80;;;3.00;;
26806;SDS011;14380;49.910;6.792;2023-05-10T01:08:34;3.55;;;2.33;;
26806;SDS011;14380;49.910;6.792;2023-05-10T01:11:01;6.75;;;2.40;;
26806;SDS011;14380;49.910;6.792;2023-05-10T01:13:30;3.95;;;2.72;;
26806;SDS011;14380;49.910;6.792;2023-05-10T01:15:58;5.57;;;2.60;;
26806;SDS011;14380;49.910;6.792;2023-05-10T01:18:28;7.35;;;2.80;;
26806;SDS011;14380;49.910;6.792;2023-05-10T01:20:59;5.57;;;3.05;;
26806;SDS011;14380;49.910;6.792;2023-05-10T01:23:36;4.90;;;3.20;;
26806;SDS011;14380;49.910;6.792;2023-05-10T01:26:21;7.25;;;3.75;;
26806;SDS011;14380;49.910;6.792;2023-05-10T01:29:11;9.38;;;2.90;;
26806;SDS011;14380;49.910;6.792;2023-05-10T01:31:57;5.75;;;3.65;;
26806;SDS011;14380;49.910;6.792;2023-05-10T01:34:35;5.35;;;3.10;;
26806;SDS011;14380;49.910;6.792;2023-05-10T01:37:09;4.57;;;3.50;;
26806;SDS011;14380;49.910;6.792;2023-05-10T01:39:43;5.85;;;4.32;;
26806;SDS011;14380;49.910;6.792;2023-05-10T01:42:14;6.88;;;4.53;;
26806;SDS011;14380;49.910;6.792;2023-05-10T01:44:46;7.00;;;4.30;;
26806;SDS011;14380;49.910;6.792;2023-05-10T01:47:23;18.77;;;4.65;;
26806;SDS011;14380;49.910;6.792;2023-05-10T01:49:54;9.30;;;4.45;;
26806;SDS011;14380;49.910;6.792;2023-05-10T01:52:24;17.90;;;5.50;;
26806;SDS011;14380;49.910;6.792;2023-05-10T01:54:59;9.13;;;4.82;;
26806;SDS011;14380;49.910;6.792;2023-05-10T01:57:31;11.23;;;5.15;;
26806;SDS011;14380;49.910;6.792;2023-05-10T02:00:01;8.05;;;5.68;;
26806;SDS011;14380;49.910;6.792;2023-05-10T02:02:30;8.35;;;5.35;;
26806;SDS011;14380;49.910;6.792;2023-05-10T02:05:02;8.27;;;4.95;;
26806;SDS011;14380;49.910;6.792;2023-05-10T02:07:31;7.85;;;5.05;;
26806;SDS011;14380;49.910;6.792;2023-05-10T02:10:00;11.48;;;5.72;;
26806;SDS011;14380;49.910;6.792;2023-05-10T02:12:28;9.90;;;5.07;;
26806;SDS011;14380;49.910;6.792;2023-05-10T02:14:58;6.82;;;4.75;;
26806;SDS011;14380;49.910;6.792;2023-05-10T02:17:28;8.52;;;5.25;;
26806;SDS011;14380;49.910;6.792;2023-05-10T02:19:58;9.38;;;4.82;;
26806;SDS011;14380;49.910;6.792;2023-05-10T02:22:25;10.40;;;5.10;;
26806;SDS011;14380;49.910;6.792;2023-05-10T02:24:53;10.80;;;5.10;;
26806;SDS011;14380;49.910;6.792;2023-05-10T02:27:22;7.70;;;5.22;;
26806;SDS011;14380;49.910;6.792;2023-05-10T02:29:50;11.45;;;5.65;;
26806;SDS011;14380;49.910;6.792;2023-05-10T02:32:18;9.93;;;5.85;;
26806;SDS011;14380;49.910;6.792;2023-05-10T02:34:45;8.43;;;4.97;;
26806;SDS011;14380;49.910;6.792;2023-05-10T02:37:18;7.68;;;5.20;;
26806;SDS011;14380;49.910;6.792;2023-05-10T02:39:45;9.80;;;4.93;;
26806;SDS011;14380;49.910;6.792;2023-05-10T02:42:13;9.57;;;4.63;;
26806;SDS011;14380;49.910;6.792;2023-05-10T02:44:45;11.57;;;5.50;;
26806;SDS011;14380;49.910;6.792;2023-05-10T02:47:13;10.85;;;5.40;;
26806;SDS011;14380;49.910;6.792;2023-05-10T02:49:40;10.55;;;4.60;;
26806;SDS011;14380;49.910;6.792;2023-05-10T02:52:07;13.45;;;5.28;;
26806;SDS011;14380;49.910;6.792;2023-05-10T02:54:38;13.63;;;5.43;;
26806;SDS011;14380;49.910;6.792;2023-05-10T02:57:07;7.60;;;4.88;;
26806;SDS011;14380;49.910;6.792;2023-05-10T02:59:39;12.07;;;5.18;;
26806;SDS011;14380;49.910;6.792;2023-05-10T03:02:07;8.40;;;4.57;;
26806;SDS011;14380;49.910;6.792;2023-05-10T03:04:35;12.90;;;5.55;;
26806;SDS011;14380;49.910;6.792;2023-05-10T03:07:02;7.68;;;5.30;;
26806;SDS011;14380;49.910;6.792;2023-05-10T03:09:29;10.32;;;4.55;;
26806;SDS011;14380;49.910;6.792;2023-05-10T03:12:00;8.45;;;5.30;;
26806;SDS011;14380;49.910;6.792;2023-05-10T03:14:34;8.95;;;5.03;;
26806;SDS011;14380;49.910;6.792;2023-05-10T03:17:14;8.52;;;4.65;;
26806;SDS011;14380;49.910;6.792;2023-05-10T03:19:47;7.78;;;4.72;;
26806;SDS011;14380;49.910;6.792;2023-05-10T03:22:21;14.10;;;4.20;;
26806;SDS011;14380;49.910;6.792;2023-05-10T03:24:51;7.57;;;4.15;;
26806;SDS011;14380;49.910;6.792;2023-05-10T03:27:23;6.25;;;3.85;;
26806;SDS011;14380;49.910;6.792;2023-05-10T03:29:52;9.10;;;4.50;;
26806;SDS011;14380;49.910;6.792;2023-05-10T03:32:21;8.73;;;3.88;;
26806;SDS011;14380;49.910;6.792;2023-05-10T03:34:48;6.32;;;4.00;;
26806;SDS011;14380;49.910;6.792;2023-05-10T03:37:15;9.65;;;3.83;;
26806;SDS011;14380;49.910;6.792;2023-05-10T03:39:41;8.70;;;4.05;;
26806;SDS011;14380;49.910;6.792;2023-05-10T03:42:08;8.60;;;3.60;;
26806;SDS011;14380;49.910;6.792;2023-05-10T03:44:38;11.95;;;3.75;;
26806;SDS011;14380;49.910;6.792;2023-05-10T03:47:05;7.40;;;3.80;;
26806;SDS011;14380;49.910;6.792;2023-05-10T03:49:32;8.32;;;4.22;;
26806;SDS011;14380;49.910;6.792;2023-05-10T03:51:59;9.90;;;3.83;;
26806;SDS011;14380;49.910;6.792;2023-05-10T03:54:26;8.38;;;3.67;;
26806;SDS011;14380;49.910;6.792;2023-05-10T03:56:53;8.32;;;4.18;;
26806;SDS011;14380;49.910;6.792;2023-05-10T03:59:20;8.68;;;4.72;;
26806;SDS011;14380;49.910;6.792;2023-05-10T04:01:48;7.97;;;4.28;;
26806;SDS011;14380;49.910;6.792;2023-05-10T04:04:15;8.13;;;4.13;;
26806;SDS011;14380;49.910;6.792;2023-05-10T04:06:45;11.40;;;4.20;;
26806;SDS011;14380;49.910;6.792;2023-05-10T04:09:12;14.23;;;4.40;;
26806;SDS011;14380;49.910;6.792;2023-05-10T04:11:39;8.63;;;4.70;;
26806;SDS011;14380;49.910;6.792;2023-05-10T04:14:06;10.15;;;4.30;;
26806;SDS011;14380;49.910;6.792;2023-05-10T04:16:34;10.32;;;4.75;;
26806;SDS011;14380;49.910;6.792;2023-05-10T04:19:02;10.18;;;4.03;;
26806;SDS011;14380;49.910;6.792;2023-05-10T04:21:29;20.08;;;5.30;;
26806;SDS011;14380;49.910;6.792;2023-05-10T04:23:56;9.50;;;3.90;;
26806;SDS011;14380;49.910;6.792;2023-05-10T04:26:23;11.15;;;3.88;;
26806;SDS011;14380;49.910;6.792;2023-05-10T04:28:51;12.98;;;4.00;;
26806;SDS011;14380;49.910;6.792;2023-05-10T04:31:18;8.07;;;3.90;;
26806;SDS011;14380;49.910;6.792;2023-05-10T04:33:45;4.75;;;3.45;;
26806;SDS011;14380;49.910;6.792;2023-05-10T04:36:14;5.68;;;3.05;;
26806;SDS011;14380;49.910;6.792;2023-05-10T04:38:40;6.53;;;3.53;;
26806;SDS011;14380;49.910;6.792;2023-05-10T04:41:08;7.20;;;3.30;;
26806;SDS011;14380;49.910;6.792;2023-05-10T04:43:36;9.95;;;4.07;;
26806;SDS011;14380;49.910;6.792;2023-05-10T04:46:04;7.78;;;3.67;;
26806;SDS011;14380;49.910;6.792;2023-05-10T04:48:32;6.30;;;4.18;;
26806;SDS011;14380;49.910;6.792;2023-05-10T04:50:59;11.23;;;3.97;;
26806;SDS011;14380;49.910;6.792;2023-05-10T04:53:27;8.13;;;4.13;;
26806;SDS011;14380;49.910;6.792;2023-05-10T04:55:54;10.98;;;5.05;;
26806;SDS011;14380;49.910;6.792;2023-05-10T04:58:21;10.23;;;5.32;;
26806;SDS011;14380;49.910;6.792;2023-05-10T05:00:47;12.13;;;5.28;;
26806;SDS011;14380;49.910;6.792;2023-05-10T05:03:14;7.88;;;5.10;;
26806;SDS011;14380;49.910;6.792;2023-05-10T05:05:41;9.48;;;5.20;;
26806;SDS011;14380;49.910;6.792;2023-05-10T05:08:08;10.00;;;5.15;;
26806;SDS011;14380;49.910;6.792;2023-05-10T05:10:36;11.20;;;4.18;;
26806;SDS011;14380;49.910;6.792;2023-05-10T05:13:03;6.15;;;4.22;;
26806;SDS011;14380;49.910;6.792;2023-05-10T05:15:30;9.43;;;4.70;;
26806;SDS011;14380;49.910;6.792;2023-05-10T05:17:57;10.27;;;4.97;;
26806;SDS011;14380;49.910;6.792;2023-05-10T05:20:24;14.27;;;4.63;;
26806;SDS011;14380;49.910;6.792;2023-05-10T05:22:50;8.13;;;4.43;;
26806;SDS011;14380;49.910;6.792;2023-05-10T05:25:17;10.05;;;4.47;;
26806;SDS011;14380;49.910;6.792;2023-05-10T05:27:45;8.10;;;4.18;;
26806;SDS011;14380;49.910;6.792;2023-05-10T05:30:12;9.68;;;4.22;;
26806;SDS011;14380;49.910;6.792;2023-05-10T05:32:39;9.95;;;4.30;;
26806;SDS011;14380;49.910;6.792;2023-05-10T05:35:06;8.90;;;4.15;;
26806;SDS011;14380;49.910;6.792;2023-05-10T05:37:33;4.85;;;3.90;;
26806;SDS011;14380;49.910;6.792;2023-05-10T05:40:02;5.50;;;3.90;;
26806;SDS011;14380;49.910;6.792;2023-05-10T05:42:30;7.28;;;4.07;;
26806;SDS011;14380;49.910;6.792;2023-05-10T05:44:59;6.85;;;4.43;;
26806;SDS011;14380;49.910;6.792;2023-05-10T05:47:26;6.13;;;4.03;;
26806;SDS011;14380;49.910;6.792;2023-05-10T05:49:53;5.93;;;3.50;;
26806;SDS011;14380;49.910;6.792;2023-05-10T05:52:20;4.80;;;3.33;;
26806;SDS011;14380;49.910;6.792;2023-05-10T05:54:47;6.50;;;3.40;;
26806;SDS011;14380;49.910;6.792;2023-05-10T05:57:14;8.23;;;4.07;;
26806;SDS011;14380;49.910;6.792;2023-05-10T05:59:41;7.15;;;4.13;;
26806;SDS011;14380;49.910;6.792;2023-05-10T06:02:10;8.18;;;3.90;;
26806;SDS011;14380;49.910;6.792;2023-05-10T06:04:37;5.70;;;3.97;;
26806;SDS011;14380;49.910;6.792;2023-05-10T06:07:04;6.10;;;3.50;;
26806;SDS011;14380;49.910;6.792;2023-05-10T06:09:31;3.60;;;2.70;;
26806;SDS011;14380;49.910;6.792;2023-05-10T06:11:58;3.83;;;2.58;;
26806;SDS011;14380;49.910;6.792;2023-05-10T06:14:25;10.15;;;2.30;;
26806;SDS011;14380;49.910;6.792;2023-05-10T06:16:52;2.50;;;2.00;;
26806;SDS011;14380;49.910;6.792;2023-05-10T06:19:21;2.78;;;1.50;;
26806;SDS011;14380;49.910;6.792;2023-05-10T06:21:47;17.98;;;2.72;;
26806;SDS011;14380;49.910;6.792;2023-05-10T06:24:14;2.55;;;2.00;;
26806;SDS011;14380;49.910;6.792;2023-05-10T06:26:41;2.65;;;1.20;;
26806;SDS011;14380;49.910;6.792;2023-05-10T06:29:08;2.80;;;1.35;;
26806;SDS011;14380;49.910;6.792;2023-05-10T06:31:35;1.83;;;1.20;;
26806;SDS011;14380;49.910;6.792;2023-05-10T06:34:02;3.30;;;1.17;;
26806;SDS011;14380;49.910;6.792;2023-05-10T06:36:30;2.25;;;1.17;;
26806;SDS011;14380;49.910;6.792;2023-05-10T06:38:57;5.68;;;0.70;;
26806;SDS011;14380;49.910;6.792;2023-05-10T06:41:24;2.58;;;0.95;;
26806;SDS011;14380;49.910;6.792;2023-05-10T06:43:51;11.10;;;1.00;;
26806;SDS011;14380;49.910;6.792;2023-05-10T06:46:18;2.63;;;0.90;;
26806;SDS011;14380;49.910;6.792;2023-05-10T06:48:44;3.22;;;0.60;;
26806;SDS011;14380;49.910;6.792;2023-05-10T06:51:11;3.20;;;0.90;;
26806;SDS011;14380;49.910;6.792;2023-05-10T06:53:39;1.75;;;0.70;;
26806;SDS011;14380;49.910;6.792;2023-05-10T06:56:06;1.95;;;0.60;;
26806;SDS011;14380;49.910;6.792;2023-05-10T06:58:33;2.45;;;0.60;;
26806;SDS011;14380;49.910;6.792;2023-05-10T07:01:03;2.58;;;0.80;;
26806;SDS011;14380;49.910;6.792;2023-05-10T07:03:31;0.68;;;0.50;;
26806;SDS011;14380;49.910;6.792;2023-05-10T07:06:01;3.47;;;0.50;;
26806;SDS011;14380;49.910;6.792;2023-05-10T07:08:29;2.53;;;0.45;;
26806;SDS011;14380;49.910;6.792;2023-05-10T07:11:01;0.70;;;0.40;;
26806;SDS011;14380;49.910;6.792;2023-05-10T07:13:29;1.45;;;0.35;;
26806;SDS011;14380;49.910;6.792;2023-05-10T07:15:57;0.50;;;0.43;;
26806;SDS011;14380;49.910;6.792;2023-05-10T07:18:25;2.28;;;0.47;;
26806;SDS011;14380;49.910;6.792;2023-05-10T07:20:52;0.22;;;0.22;;
26806;SDS011;14380;49.910;6.792;2023-05-10T07:23:19;3.70;;;0.52;;
26806;SDS011;14380;49.910;6.792;2023-05-10T07:25:46;2.35;;;0.40;;
26806;SDS011;14380;49.910;6.792;2023-05-10T07:28:15;4.97;;;0.43;;
26806;SDS011;14380;49.910;6.792;2023-05-10T07:30:42;2.45;;;0.50;;
26806;SDS011;14380;49.910;6.792;2023-05-10T07:33:09;1.02;;;0.35;;
26806;SDS011;14380;49.910;6.792;2023-05-10T07:35:37;0.68;;;0.38;;
26806;SDS011;14380;49.910;6.792;2023-05-10T07:38:04;5.88;;;0.47;;
26806;SDS011;14380;49.910;6.792;2023-05-10T07:40:32;4.68;;;0.50;;
26806;SDS011;14380;49.910;6.792;2023-05-10T07:42:59;0.20;;;0.20;;
26806;SDS011;14380;49.910;6.792;2023-05-10T07:45:28;0.40;;;0.30;;
26806;SDS011;14380;49.910;6.792;2023-05-10T07:47:55;2.65;;;0.30;;
26806;SDS011;14380;49.910;6.792;2023-05-10T07:50:22;0.30;;;0.30;;
26806;SDS011;14380;49.910;6.792;2023-05-10T07:52:49;0.55;;;0.30;;
26806;SDS011;14380;49.910;6.792;2023-05-10T07:55:16;1.20;;;0.25;;
26806;SDS011;14380;49.910;6.792;2023-05-10T07:57:46;1.00;;;0.47;;
26806;SDS011;14380;49.910;6.792;2023-05-10T08:00:13;0.85;;;0.30;;
26806;SDS011;14380;49.910;6.792;2023-05-10T08:02:46;2.85;;;0.77;;
26806;SDS011;14380;49.910;6.792;2023-05-10T08:05:13;0.50;;;0.40;;
26806;SDS011;14380;49.910;6.792;2023-05-10T08:07:40;1.25;;;0.32;;
26806;SDS011;14380;49.910;6.792;2023-05-10T08:10:08;0.30;;;0.30;;
26806;SDS011;14380;49.910;6.792;2023-05-10T08:12:37;2.28;;;0.50;;
26806;SDS011;14380;49.910;6.792;2023-05-10T08:15:04;1.40;;;0.40;;
26806;SDS011;14380;49.910;6.792;2023-05-10T08:17:32;1.60;;;0.40;;
26806;SDS011;14380;49.910;6.792;2023-05-10T08:20:01;2.75;;;0.43;;
26806;SDS011;14380;49.910;6.792;2023-05-10T08:22:28;4.72;;;0.70;;
26806;SDS011;14380;49.910;6.792;2023-05-10T08:24:55;1.95;;;0.35;;
26806;SDS011;14380;49.910;6.792;2023-05-10T08:27:22;1.67;;;0.55;;
26806;SDS011;14380;49.910;6.792;2023-05-10T08:29:49;1.67;;;0.32;;
26806;SDS011;14380;49.910;6.792;2023-05-10T08:32:18;0.85;;;0.32;;
26806;SDS011;14380;49.910;6.792;2023-05-10T08:34:46;2.50;;;0.50;;
26806;SDS011;14380;49.910;6.792;2023-05-10T08:37:14;1.67;;;0.40;;
26806;SDS011;14380;49.910;6.792;2023-05-10T08:39:41;0.80;;;0.65;;
26806;SDS011;14380;49.910;6.792;2023-05-10T08:42:08;0.40;;;0.30;;
26806;SDS011;14380;49.910;6.792;2023-05-10T08:44:35;0.68;;;0.40;;
26806;SDS011;14380;49.910;6.792;2023-05-10T08:47:04;2.33;;;0.40;;
26806;SDS011;14380;49.910;6.792;2023-05-10T08:49:32;0.75;;;0.50;;
26806;SDS011;14380;49.910;6.792;2023-05-10T08:52:01;1.17;;;0.50;;
26806;SDS011;14380;49.910;6.792;2023-05-10T08:54:32;2.45;;;0.80;;
26806;SDS011;14380;49.910;6.792;2023-05-10T08:57:00;0.50;;;0.40;;
26806;SDS011;14380;49.910;6.792;2023-05-10T08:59:28;1.98;;;0.50;;
26806;SDS011;14380;49.910;6.792;2023-05-10T09:01:55;0.93;;;0.55;;
26806;SDS011;14380;49.910;6.792;2023-05-10T09:04:24;1.02;;;0.60;;
26806;SDS011;14380;49.910;6.792;2023-05-10T09:06:51;3.47;;;0.55;;
26806;SDS011;14380;49.910;6.792;2023-05-10T09:09:18;1.45;;;0.50;;
26806;SDS011;14380;49.910;6.792;2023-05-10T09:11:47;1.10;;;0.52;;
26806;SDS011;14380;49.910;6.792;2023-05-10T09:14:14;0.95;;;0.50;;
26806;SDS011;14380;49.910;6.792;2023-05-10T09:16:42;0.63;;;0.30;;
26806;SDS011;14380;49.910;6.792;2023-05-10T09:19:09;0.85;;;0.40;;
26806;SDS011;14380;49.910;6.792;2023-05-10T09:21:36;0.45;;;0.40;;
26806;SDS011;14380;49.910;6.792;2023-05-10T09:24:05;0.63;;;0.40;;
26806;SDS011;14380;49.910;6.792;2023-05-10T09:26:32;7.60;;;0.60;;
26806;SDS011;14380;49.910;6.792;2023-05-10T09:29:02;0.65;;;0.40;;
26806;SDS011;14380;49.910;6.792;2023-05-10T09:31:43;3.15;;;0.52;;
26806;SDS011;14380;49.910;6.792;2023-05-10T09:34:15;3.13;;;0.55;;
26806;SDS011;14380;49.910;6.792;2023-05-10T09:36:52;2.10;;;0.38;;
26806;SDS011;14380;49.910;6.792;2023-05-10T09:39:21;1.42;;;0.50;;
26806;SDS011;14380;49.910;6.792;2023-05-10T09:41:57;4.57;;;0.30;;
26806;SDS011;14380;49.910;6.792;2023-05-10T09:44:27;1.05;;;0.30;;
26806;SDS011;14380;49.910;6.792;2023-05-10T09:46:54;4.50;;;0.40;;
26806;SDS011;14380;49.910;6.792;2023-05-10T09:49:20;0.40;;;0.40;;
26806;SDS011;14380;49.910;6.792;2023-05-10T09:51:57;2.15;;;0.35;;
26806;SDS011;14380;49.910;6.792;2023-05-10T09:54:27;3.50;;;0.73;;
26806;SDS011;14380;49.910;6.792;2023-05-10T09:56:54;0.80;;;0.40;;
26806;SDS011;14380;49.910;6.792;2023-05-10T09:59:20;2.05;;;0.60;;
26806;SDS011;14380;49.910;6.792;2023-05-10T10:01:50;1.60;;;0.52;;
26806;SDS011;14380;49.910;6.792;2023-05-10T10:04:17;0.50;;;0.50;;
26806;SDS011;14380;49.910;6.792;2023-05-10T10:06:46;0.98;;;0.70;;
26806;SDS011;14380;49.910;6.792;2023-05-10T10:09:26;1.13;;;0.70;;
26806;SDS011;14380;49.910;6.792;2023-05-10T10:11:56;2.00;;;0.70;;
26806;SDS011;14380;49.910;6.792;2023-05-10T10:14:23;1.35;;;0.80;;
26806;SDS011;14380;49.910;6.792;2023-05-10T10:16:52;3.30;;;1.00;;
26806;SDS011;14380;49.910;6.792;2023-05-10T10:19:19;2.00;;;0.90;;
26806;SDS011;14380;49.910;6.792;2023-05-10T10:21:47;3.40;;;0.98;;
26806;SDS011;14380;49.910;6.792;2023-05-10T10:24:14;2.22;;;0.98;;
26806;SDS011;14380;49.910;6.792;2023-05-10T10:26:41;1.83;;;0.82;;
26806;SDS011;14380;49.910;6.792;2023-05-10T10:29:12;1.13;;;0.70;;
26806;SDS011;14380;49.910;6.792;2023-05-10T10:31:47;3.42;;;0.80;;
26806;SDS011;14380;49.910;6.792;2023-05-10T10:34:25;1.50;;;0.70;;
26806;SDS011;14380;49.910;6.792;2023-05-10T10:36:54;2.40;;;0.85;;
26806;SDS011;14380;49.910;6.792;2023-05-10T10:39:22;1.77;;;0.80;;
26806;SDS011;14380;49.910;6.792;2023-05-10T10:41:51;1.13;;;0.88;;
26806;SDS011;14380;49.910;6.792;2023-05-10T10:44:22;3.30;;;1.10;;
26806;SDS011;14380;49.910;6.792;2023-05-10T10:47:03;2.65;;;0.90;;
26806;SDS011;14380;49.910;6.792;2023-05-10T10:49:50;1.23;;;0.98;;
26806;SDS011;14380;49.910;6.792;2023-05-10T10:52:23;3.00;;;0.60;;
26806;SDS011;14380;49.910;6.792;2023-05-10T10:54:58;1.90;;;1.00;;
26806;SDS011;14380;49.910;6.792;2023-05-10T10:57:26;3.78;;;1.08;;
26806;SDS011;14380;49.910;6.792;2023-05-10T11:02:47;1.35;;;0.80;;
26806;SDS011;14380;49.910;6.792;2023-05-10T11:08:13;2.53;;;0.90;;
26806;SDS011;14380;49.910;6.792;2023-05-10T11:10:49;3.70;;;0.85;;
26806;SDS011;14380;49.910;6.792;2023-05-10T11:13:29;3.78;;;1.38;;
26806;SDS011;14380;49.910;6.792;2023-05-10T11:15:57;4.88;;;1.02;;
26806;SDS011;14380;49.910;6.792;2023-05-10T11:18:25;1.45;;;1.00;;
26806;SDS011;14380;49.910;6.792;2023-05-10T11:20:55;4.75;;;1.50;;
26806;SDS011;14380;49.910;6.792;2023-05-10T11:23:28;2.83;;;1.40;;
26806;SDS011;14380;49.910;6.792;2023-05-10T11:25:56;2.55;;;1.00;;
26806;SDS011;14380;49.910;6.792;2023-05-10T11:28:24;2.63;;;0.98;;
26806;SDS011;14380;49.910;6.792;2023-05-10T11:30:52;2.58;;;1.27;;
26806;SDS011;14380;49.910;6.792;2023-05-10T11:33:20;4.35;;;1.17;;
26806;SDS011;14380;49.910;6.792;2023-05-10T11:35:47;3.95;;;1.60;;
26806;SDS011;14380;49.910;6.792;2023-05-10T11:38:16;4.78;;;1.20;;
26806;SDS011;14380;49.910;6.792;2023-05-10T11:40:42;5.95;;;1.55;;
26806;SDS011;14380;49.910;6.792;2023-05-10T11:43:09;3.55;;;1.40;;
26806;SDS011;14380;49.910;6.792;2023-05-10T11:45:37;7.88;;;1.58;;
26806;SDS011;14380;49.910;6.792;2023-05-10T11:48:04;3.70;;;1.00;;
26806;SDS011;14380;49.910;6.792;2023-05-10T11:50:31;8.30;;;1.83;;
26806;SDS011;14380;49.910;6.792;2023-05-10T11:52:58;3.33;;;1.15;;
26806;SDS011;14380;49.910;6.792;2023-05-10T11:55:27;8.55;;;1.85;;
26806;SDS011;14380;49.910;6.792;2023-05-10T11:57:55;4.70;;;1.20;;
26806;SDS011;14380;49.910;6.792;2023-05-10T12:00:27;5.53;;;1.90;;
26806;SDS011;14380;49.910;6.792;2023-05-10T12:02:54;4.18;;;1.77;;
26806;SDS011;14380;49.910;6.792;2023-05-10T12:05:21;4.70;;;2.00;;
26806;SDS011;14380;49.910;6.792;2023-05-10T12:07:48;7.22;;;2.65;;
26806;SDS011;14380;49.910;6.792;2023-05-10T12:10:15;3.55;;;1.60;;
26806;SDS011;14380;49.910;6.792;2023-05-10T12:12:45;4.93;;;1.67;;
26806;SDS011;14380;49.910;6.792;2023-05-10T12:15:16;5.95;;;1.63;;
26806;SDS011;14380;49.910;6.792;2023-05-10T12:17:47;5.07;;;1.73;;
26806;SDS011;14380;49.910;6.792;2023-05-10T12:20:15;3.65;;;1.20;;
26806;SDS011;14380;49.910;6.792;2023-05-10T12:22:44;5.85;;;1.15;;
26806;SDS011;14380;49.910;6.792;2023-05-10T12:25:13;4.70;;;1.38;;
26806;SDS011;14380;49.910;6.792;2023-05-10T12:27:40;6.07;;;1.60;;
26806;SDS011;14380;49.910;6.792;2023-05-10T12:30:17;5.32;;;1.50;;
26806;SDS011;14380;49.910;6.792;2023-05-10T12:32:45;5.57;;;1.30;;
26806;SDS011;14380;49.910;6.792;2023-05-10T12:35:12;6.13;;;1.40;;
26806;SDS011;14380;49.910;6.792;2023-05-10T12:37:41;5.47;;;1.35;;
26806;SDS011;14380;49.910;6.792;2023-05-10T12:40:09;3.20;;;1.02;;
26806;SDS011;14380;49.910;6.792;2023-05-10T12:42:37;7.53;;;1.27;;
26806;SDS011;14380;49.910;6.792;2023-05-10T12:45:05;5.38;;;1.27;;
26806;SDS011;14380;49.910;6.792;2023-05-10T12:47:35;8.43;;;1.38;;
26806;SDS011;14380;49.910;6.792;2023-05-10T12:50:02;5.82;;;1.38;;
26806;SDS011;14380;49.910;6.792;2023-05-10T12:52:30;4.30;;;1.20;;
26806;SDS011;14380;49.910;6.792;2023-05-10T12:54:58;5.80;;;1.50;;
26806;SDS011;14380;49.910;6.792;2023-05-10T12:57:25;3.92;;;0.90;;
26806;SDS011;14380;49.910;6.792;2023-05-10T12:59:52;3.75;;;1.00;;
26806;SDS011;14380;49.910;6.792;2023-05-10T13:02:20;5.95;;;1.30;;
26806;SDS011;14380;49.910;6.792;2023-05-10T13:04:49;4.70;;;1.25;;
26806;SDS011;14380;49.910;6.792;2023-05-10T13:07:17;6.78;;;1.63;;
26806;SDS011;14380;49.910;6.792;2023-05-10T13:09:44;3.70;;;1.35;;
26806;SDS011;14380;49.910;6.792;2023-05-10T13:12:11;7.15;;;1.40;;
26806;SDS011;14380;49.910;6.792;2023-05-10T13:14:38;6.63;;;1.10;;
26806;SDS011;14380;49.910;6.792;2023-05-10T13:17:05;6.88;;;1.20;;
26806;SDS011;14380;49.910;6.792;2023-05-10T13:19:33;6.03;;;1.27;;
26806;SDS011;14380;49.910;6.792;2023-05-10T13:22:03;3.92;;;1.17;;
26806;SDS011;14380;49.910;6.792;2023-05-10T13:24:29;4.53;;;1.10;;
26806;SDS011;14380;49.910;6.792;2023-05-10T13:26:56;5.00;;;1.20;;
26806;SDS011;14380;49.910;6.792;2023-05-10T13:29:23;3.63;;;1.40;;
26806;SDS011;14380;49.910;6.792;2023-05-10T13:31:50;3.13;;;1.10;;
26806;SDS011;14380;49.910;6.792;2023-05-10T13:34:16;7.18;;;1.52;;
26806;SDS011;14380;49.910;6.792;2023-05-10T13:36:45;5.15;;;1.75;;
26806;SDS011;14380;49.910;6.792;2023-05-10T13:39:14;2.40;;;0.95;;
26806;SDS011;14380;49.910;6.792;2023-05-10T13:41:41;6.90;;;1.02;;
26806;SDS011;14380;49.910;6.792;2023-05-10T13:44:08;3.20;;;1.20;;
26806;SDS011;14380;49.910;6.792;2023-05-10T13:46:37;4.28;;;1.13;;
26806;SDS011;14380;49.910;6.792;2023-05-10T13:49:04;3.03;;;1.10;;
26806;SDS011;14380;49.910;6.792;2023-05-10T13:51:30;6.45;;;1.00;;
26806;SDS011;14380;49.910;6.792;2023-05-10T13:53:57;3.28;;;0.90;;
26806;SDS011;14380;49.910;6.792;2023-05-10T13:56:26;6.90;;;1.10;;
26806;SDS011;14380;49.910;6.792;2023-05-10T13:58:52;5.93;;;0.80;;
26806;SDS011;14380;49.910;6.792;2023-05-10T14:01:19;5.65;;;0.90;;
26806;SDS011;14380;49.910;6.792;2023-05-10T14:03:46;7.78;;;1.08;;
26806;SDS011;14380;49.910;6.792;2023-05-10T14:06:13;4.53;;;1.10;;
26806;SDS011;14380;49.910;6.792;2023-05-10T14:08:40;3.35;;;0.80;;
26806;SDS011;14380;49.910;6.792;2023-05-10T14:11:08;2.63;;;1.00;;
26806;SDS011;14380;49.910;6.792;2023-05-10T14:13:36;2.90;;;0.93;;
26806;SDS011;14380;49.910;6.792;2023-05-10T14:16:04;2.92;;;0.90;;
26806;SDS011;14380;49.910;6.792;2023-05-10T14:18:31;4.38;;;1.00;;
26806;SDS011;14380;49.910;6.792;2023-05-10T14:20:58;2.97;;;0.80;;
26806;SDS011;14380;49.910;6.792;2023-05-10T14:23:26;4.25;;;0.90;;
26806;SDS011;14380;49.910;6.792;2023-05-10T14:25:53;2.65;;;1.10;;
26806;SDS011;14380;49.910;6.792;2023-05-10T14:28:20;3.55;;;1.10;;
26806;SDS011;14380;49.910;6.792;2023-05-10T14:30:53;6.07;;;1.23;;
26806;SDS011;14380;49.910;6.792;2023-05-10T14:33:20;6.07;;;1.00;;
26806;SDS011;14380;49.910;6.792;2023-05-10T14:35:47;4.78;;;1.10;;
26806;SDS011;14380;49.910;6.792;2023-05-10T14:38:14;4.60;;;0.80;;
26806;SDS011;14380;49.910;6.792;2023-05-10T14:40:41;3.63;;;0.85;;
26806;SDS011;14380;49.910;6.792;2023-05-10T14:43:08;4.80;;;0.90;;
26806;SDS011;14380;49.910;6.792;2023-05-10T14:45:35;4.22;;;0.70;;
26806;SDS011;14380;49.910;6.792;2023-05-10T14:48:05;3.65;;;0.77;;
26806;SDS011;14380;49.910;6.792;2023-05-10T14:50:36;5.38;;;0.77;;
26806;SDS011;14380;49.910;6.792;2023-05-10T14:53:04;2.03;;;0.88;;
26806;SDS011;14380;49.910;6.792;2023-05-10T14:55:31;4.20;;;1.00;;
26806;SDS011;14380;49.910;6.792;2023-05-10T14:57:59;1.08;;;0.70;;
26806;SDS011;14380;49.910;6.792;2023-05-10T15:00:27;2.47;;;0.98;;